sensor_id;sensor_type;location;lat;lon;timestamp;P1;durP1;ratioP1;P2;durP2;ratioP2
76053;SDS011;64752;48.870;9.082;2022-12-18T00:01:29;116.43;;;46.05;;
76053;SDS011;64752;48.870;9.082;2022-12-18T00:03:56;154.70;;;48.38;;
76053;SDS011;64752;48.870;9.082;2022-12-18T00:06:23;109.40;;;42.63;;
76053;SDS011;64752;48.870;9.082;2022-12-18T00:08:50;90.15;;;38.20;;
76053;SDS011;64752;48.870;9.082;2022-12-18T00:11:20;91.10;;;38.73;;
76053;SDS011;64752;48.870;9.082;2022-12-18T00:13:48;85.55;;;40.08;;
76053;SDS011;64752;48.870;9.082;2022-12-18T00:16:15;91.57;;;38.20;;
76053;SDS011;64752;48.870;9.082;2022-12-18T00:18:43;95.60;;;43.25;;
76053;SDS011;64752;48.870;9.082;2022-12-18T00:21:09;108.63;;;43.50;;
76053;SDS011;64752;48.870;9.082;2022-12-18T00:23:36;96.57;;;43.13;;
76053;SDS011;64752;48.870;9.082;2022-12-18T00:26:03;102.30;;;40.85;;
76053;SDS011;64752;48.870;9.082;2022-12-18T00:28:31;97.10;;;40.53;;
76053;SDS011;64752;48.870;9.082;2022-12-18T00:31:02;100.70;;;40.47;;
76053;SDS011;64752;48.870;9.082;2022-12-18T00:33:32;93.70;;;37.88;;
76053;SDS011;64752;48.870;9.082;2022-12-18T00:36:02;104.20;;;43.25;;
76053;SDS011;64752;48.870;9.082;2022-12-18T00:38:32;100.90;;;43.00;;
76053;SDS011;64752;48.870;9.082;2022-12-18T00:43:23;110.43;;;43.95;;
76053;SDS011;64752;48.870;9.082;2022-12-18T00:45:49;95.10;;;40.87;;
76053;SDS011;64752;48.870;9.082;2022-12-18T00:48:15;95.57;;;39.43;;
76053;SDS011;64752;48.870;9.082;2022-12-18T00:50:40;91.83;;;41.30;;
76053;SDS011;64752;48.870;9.082;2022-12-18T00:53:05;87.73;;;40.07;;
76053;SDS011;64752;48.870;9.082;2022-12-18T00:55:32;87.03;;;37.47;;
76053;SDS011;64752;48.870;9.082;2022-12-18T00:57:59;109.70;;;42.22;;
76053;SDS011;64752;48.870;9.082;2022-12-18T01:00:24;104.50;;;43.53;;
76053;SDS011;64752;48.870;9.082;2022-12-18T01:02:50;90.03;;;40.20;;
76053;SDS011;64752;48.870;9.082;2022-12-18T01:05:15;100.57;;;41.50;;
76053;SDS011;64752;48.870;9.082;2022-12-18T01:07:40;85.47;;;36.90;;
76053;SDS011;64752;48.870;9.082;2022-12-18T01:10:06;85.93;;;38.67;;
76053;SDS011;64752;48.870;9.082;2022-12-18T01:14:58;93.82;;;39.45;;
76053;SDS011;64752;48.870;9.082;2022-12-18T01:17:24;87.27;;;38.83;;
76053;SDS011;64752;48.870;9.082;2022-12-18T01:19:49;87.07;;;38.47;;
76053;SDS011;64752;48.870;9.082;2022-12-18T01:22:15;98.63;;;39.63;;
76053;SDS011;64752;48.870;9.082;2022-12-18T01:24:40;95.33;;;39.77;;
76053;SDS011;64752;48.870;9.082;2022-12-18T01:27:06;101.33;;;38.80;;
76053;SDS011;64752;48.870;9.082;2022-12-18T01:29:31;87.33;;;34.77;;
76053;SDS011;64752;48.870;9.082;2022-12-18T01:31:56;95.73;;;41.70;;
76053;SDS011;64752;48.870;9.082;2022-12-18T01:34:22;87.30;;;39.10;;
76053;SDS011;64752;48.870;9.082;2022-12-18T01:36:49;89.85;;;38.72;;
76053;SDS011;64752;48.870;9.082;2022-12-18T01:39:17;98.00;;;41.90;;
76053;SDS011;64752;48.870;9.082;2022-12-18T01:41:43;103.55;;;39.22;;
76053;SDS011;64752;48.870;9.082;2022-12-18T01:52:43;89.55;;;37.80;;
76053;SDS011;64752;48.870;9.082;2022-12-18T01:55:12;92.60;;;40.17;;
76053;SDS011;64752;48.870;9.082;2022-12-18T01:57:41;136.38;;;41.97;;
76053;SDS011;64752;48.870;9.082;2022-12-18T02:00:08;75.55;;;34.08;;
76053;SDS011;64752;48.870;9.082;2022-12-18T02:05:11;88.63;;;36.20;;
76053;SDS011;64752;48.870;9.082;2022-12-18T02:07:50;94.15;;;38.88;;
76053;SDS011;64752;48.870;9.082;2022-12-18T02:10:41;96.75;;;38.17;;
76053;SDS011;64752;48.870;9.082;2022-12-18T02:13:18;95.57;;;36.78;;
76053;SDS011;64752;48.870;9.082;2022-12-18T02:18:43;88.85;;;36.42;;
76053;SDS011;64752;48.870;9.082;2022-12-18T02:21:17;91.07;;;35.67;;
76053;SDS011;64752;48.870;9.082;2022-12-18T02:24:22;89.50;;;35.63;;
76053;SDS011;64752;48.870;9.082;2022-12-18T02:26:58;85.55;;;34.60;;
76053;SDS011;64752;48.870;9.082;2022-12-18T02:32:07;82.78;;;36.25;;
76053;SDS011;64752;48.870;9.082;2022-12-18T02:34:37;95.35;;;37.25;;
76053;SDS011;64752;48.870;9.082;2022-12-18T02:37:05;93.28;;;39.47;;
76053;SDS011;64752;48.870;9.082;2022-12-18T02:39:36;94.28;;;37.13;;
76053;SDS011;64752;48.870;9.082;2022-12-18T02:42:08;98.32;;;37.53;;
76053;SDS011;64752;48.870;9.082;2022-12-18T02:44:44;78.78;;;33.25;;
76053;SDS011;64752;48.870;9.082;2022-12-18T02:47:14;79.55;;;33.97;;
76053;SDS011;64752;48.870;9.082;2022-12-18T02:57:40;116.30;;;41.47;;
76053;SDS011;64752;48.870;9.082;2022-12-18T03:00:27;95.45;;;38.33;;
76053;SDS011;64752;48.870;9.082;2022-12-18T03:02:59;94.03;;;38.92;;
76053;SDS011;64752;48.870;9.082;2022-12-18T03:05:43;89.10;;;35.60;;
76053;SDS011;64752;48.870;9.082;2022-12-18T03:09:00;87.05;;;36.42;;
76053;SDS011;64752;48.870;9.082;2022-12-18T03:11:09;85.50;;;34.45;;
76053;SDS011;64752;48.870;9.082;2022-12-18T03:13:37;73.78;;;33.03;;
76053;SDS011;64752;48.870;9.082;2022-12-18T03:16:27;83.05;;;32.22;;
76053;SDS011;64752;48.870;9.082;2022-12-18T03:19:01;77.50;;;31.42;;
76053;SDS011;64752;48.870;9.082;2022-12-18T03:21:35;73.28;;;31.48;;
76053;SDS011;64752;48.870;9.082;2022-12-18T03:24:10;85.32;;;35.15;;
76053;SDS011;64752;48.870;9.082;2022-12-18T03:26:36;72.80;;;32.57;;
76053;SDS011;64752;48.870;9.082;2022-12-18T03:29:07;82.13;;;36.05;;
76053;SDS011;64752;48.870;9.082;2022-12-18T03:31:45;77.72;;;32.67;;
76053;SDS011;64752;48.870;9.082;2022-12-18T03:34:17;74.25;;;33.13;;
76053;SDS011;64752;48.870;9.082;2022-12-18T03:36:48;70.68;;;30.95;;
76053;SDS011;64752;48.870;9.082;2022-12-18T03:39:14;69.90;;;29.53;;
76053;SDS011;64752;48.870;9.082;2022-12-18T03:41:43;74.22;;;31.38;;
76053;SDS011;64752;48.870;9.082;2022-12-18T03:44:13;68.18;;;29.15;;
76053;SDS011;64752;48.870;9.082;2022-12-18T03:52:03;80.10;;;33.05;;
76053;SDS011;64752;48.870;9.082;2022-12-18T03:54:50;68.20;;;30.05;;
76053;SDS011;64752;48.870;9.082;2022-12-18T03:57:21;67.28;;;29.90;;
76053;SDS011;64752;48.870;9.082;2022-12-18T03:59:51;81.57;;;32.50;;
76053;SDS011;64752;48.870;9.082;2022-12-18T04:02:21;74.65;;;31.80;;
76053;SDS011;64752;48.870;9.082;2022-12-18T04:04:48;58.42;;;27.20;;
76053;SDS011;64752;48.870;9.082;2022-12-18T04:07:18;80.72;;;31.85;;
76053;SDS011;64752;48.870;9.082;2022-12-18T04:09:45;78.32;;;32.40;;
76053;SDS011;64752;48.870;9.082;2022-12-18T04:12:11;82.45;;;31.63;;
76053;SDS011;64752;48.870;9.082;2022-12-18T04:14:36;72.87;;;29.80;;
76053;SDS011;64752;48.870;9.082;2022-12-18T04:17:02;72.70;;;29.87;;
76053;SDS011;64752;48.870;9.082;2022-12-18T04:19:28;77.90;;;31.23;;
76053;SDS011;64752;48.870;9.082;2022-12-18T04:21:53;73.10;;;29.47;;
76053;SDS011;64752;48.870;9.082;2022-12-18T04:24:19;80.53;;;32.17;;
76053;SDS011;64752;48.870;9.082;2022-12-18T04:26:44;74.73;;;32.80;;
76053;SDS011;64752;48.870;9.082;2022-12-18T04:29:10;73.47;;;30.87;;
76053;SDS011;64752;48.870;9.082;2022-12-18T04:31:35;75.07;;;31.17;;
76053;SDS011;64752;48.870;9.082;2022-12-18T04:34:01;79.03;;;32.33;;
76053;SDS011;64752;48.870;9.082;2022-12-18T04:36:26;80.73;;;32.77;;
76053;SDS011;64752;48.870;9.082;2022-12-18T04:38:52;77.73;;;32.83;;
76053;SDS011;64752;48.870;9.082;2022-12-18T04:41:17;70.77;;;29.53;;
76053;SDS011;64752;48.870;9.082;2022-12-18T04:43:43;72.53;;;31.73;;
76053;SDS011;64752;48.870;9.082;2022-12-18T04:46:08;72.97;;;31.30;;
76053;SDS011;64752;48.870;9.082;2022-12-18T04:48:34;80.93;;;30.73;;
76053;SDS011;64752;48.870;9.082;2022-12-18T04:51:00;72.35;;;30.80;;
76053;SDS011;64752;48.870;9.082;2022-12-18T04:53:25;80.33;;;31.57;;
76053;SDS011;64752;48.870;9.082;2022-12-18T04:56:01;71.80;;;31.00;;
76053;SDS011;64752;48.870;9.082;2022-12-18T04:58:27;67.93;;;31.73;;
76053;SDS011;64752;48.870;9.082;2022-12-18T05:00:53;70.03;;;30.10;;
76053;SDS011;64752;48.870;9.082;2022-12-18T05:03:18;71.77;;;29.13;;
76053;SDS011;64752;48.870;9.082;2022-12-18T05:05:43;81.10;;;31.50;;
76053;SDS011;64752;48.870;9.082;2022-12-18T05:08:09;69.73;;;31.13;;
76053;SDS011;64752;48.870;9.082;2022-12-18T05:10:34;74.23;;;30.57;;
76053;SDS011;64752;48.870;9.082;2022-12-18T05:12:59;70.27;;;29.97;;
76053;SDS011;64752;48.870;9.082;2022-12-18T05:15:31;65.13;;;27.97;;
76053;SDS011;64752;48.870;9.082;2022-12-18T05:17:58;65.55;;;28.45;;
76053;SDS011;64752;48.870;9.082;2022-12-18T05:20:24;59.15;;;27.50;;
76053;SDS011;64752;48.870;9.082;2022-12-18T05:22:50;60.45;;;28.58;;
76053;SDS011;64752;48.870;9.082;2022-12-18T05:25:16;69.05;;;31.52;;
76053;SDS011;64752;48.870;9.082;2022-12-18T05:27:42;66.38;;;29.77;;
76053;SDS011;64752;48.870;9.082;2022-12-18T05:30:07;75.30;;;29.47;;
76053;SDS011;64752;48.870;9.082;2022-12-18T05:32:34;64.00;;;29.17;;
76053;SDS011;64752;48.870;9.082;2022-12-18T05:34:59;64.47;;;30.60;;
76053;SDS011;64752;48.870;9.082;2022-12-18T05:37:25;63.53;;;28.43;;
76053;SDS011;64752;48.870;9.082;2022-12-18T05:39:50;60.13;;;31.20;;
76053;SDS011;64752;48.870;9.082;2022-12-18T05:42:15;64.60;;;27.83;;
76053;SDS011;64752;48.870;9.082;2022-12-18T05:44:40;60.33;;;28.37;;
76053;SDS011;64752;48.870;9.082;2022-12-18T05:47:06;64.83;;;30.20;;
76053;SDS011;64752;48.870;9.082;2022-12-18T05:49:31;64.07;;;29.37;;
76053;SDS011;64752;48.870;9.082;2022-12-18T05:51:57;62.67;;;28.27;;
76053;SDS011;64752;48.870;9.082;2022-12-18T05:54:22;75.60;;;32.00;;
76053;SDS011;64752;48.870;9.082;2022-12-18T05:56:47;72.60;;;28.77;;
76053;SDS011;64752;48.870;9.082;2022-12-18T05:59:13;62.23;;;27.73;;
76053;SDS011;64752;48.870;9.082;2022-12-18T06:01:38;64.60;;;28.00;;
76053;SDS011;64752;48.870;9.082;2022-12-18T06:04:03;64.30;;;26.33;;
76053;SDS011;64752;48.870;9.082;2022-12-18T06:06:29;68.27;;;28.70;;
76053;SDS011;64752;48.870;9.082;2022-12-18T06:08:55;69.03;;;27.27;;
76053;SDS011;64752;48.870;9.082;2022-12-18T06:13:55;65.88;;;27.65;;
76053;SDS011;64752;48.870;9.082;2022-12-18T06:16:21;64.88;;;27.83;;
76053;SDS011;64752;48.870;9.082;2022-12-18T06:18:46;59.70;;;27.73;;
76053;SDS011;64752;48.870;9.082;2022-12-18T06:21:12;63.57;;;28.13;;
76053;SDS011;64752;48.870;9.082;2022-12-18T06:23:40;56.90;;;25.88;;
76053;SDS011;64752;48.870;9.082;2022-12-18T06:26:06;62.17;;;26.77;;
76053;SDS011;64752;48.870;9.082;2022-12-18T06:28:33;64.72;;;28.52;;
76053;SDS011;64752;48.870;9.082;2022-12-18T06:30:58;62.73;;;27.70;;
76053;SDS011;64752;48.870;9.082;2022-12-18T06:33:26;68.70;;;29.77;;
76053;SDS011;64752;48.870;9.082;2022-12-18T06:35:52;64.15;;;28.25;;
76053;SDS011;64752;48.870;9.082;2022-12-18T06:38:18;63.77;;;26.70;;
76053;SDS011;64752;48.870;9.082;2022-12-18T06:40:43;61.17;;;27.03;;
76053;SDS011;64752;48.870;9.082;2022-12-18T06:43:08;55.77;;;25.20;;
76053;SDS011;64752;48.870;9.082;2022-12-18T06:45:34;54.83;;;24.97;;
76053;SDS011;64752;48.870;9.082;2022-12-18T06:47:59;55.73;;;25.77;;
76053;SDS011;64752;48.870;9.082;2022-12-18T06:50:25;55.90;;;26.13;;
76053;SDS011;64752;48.870;9.082;2022-12-18T06:52:50;59.70;;;25.43;;
76053;SDS011;64752;48.870;9.082;2022-12-18T06:55:15;62.67;;;28.73;;
76053;SDS011;64752;48.870;9.082;2022-12-18T06:57:41;55.97;;;25.93;;
76053;SDS011;64752;48.870;9.082;2022-12-18T07:00:06;58.83;;;26.73;;
76053;SDS011;64752;48.870;9.082;2022-12-18T07:02:32;56.78;;;25.40;;
76053;SDS011;64752;48.870;9.082;2022-12-18T07:04:58;61.37;;;27.63;;
76053;SDS011;64752;48.870;9.082;2022-12-18T07:07:23;56.53;;;25.70;;
76053;SDS011;64752;48.870;9.082;2022-12-18T07:09:49;56.80;;;26.80;;
76053;SDS011;64752;48.870;9.082;2022-12-18T07:12:15;57.53;;;27.02;;
76053;SDS011;64752;48.870;9.082;2022-12-18T07:14:40;54.37;;;25.03;;
76053;SDS011;64752;48.870;9.082;2022-12-18T07:17:06;64.53;;;29.40;;
76053;SDS011;64752;48.870;9.082;2022-12-18T07:19:31;64.53;;;28.83;;
76053;SDS011;64752;48.870;9.082;2022-12-18T07:21:56;56.17;;;26.33;;
76053;SDS011;64752;48.870;9.082;2022-12-18T07:24:22;53.53;;;26.07;;
76053;SDS011;64752;48.870;9.082;2022-12-18T07:26:50;56.20;;;24.52;;
76053;SDS011;64752;48.870;9.082;2022-12-18T07:29:15;51.40;;;24.17;;
76053;SDS011;64752;48.870;9.082;2022-12-18T07:31:40;54.43;;;26.90;;
76053;SDS011;64752;48.870;9.082;2022-12-18T07:34:09;51.30;;;25.93;;
76053;SDS011;64752;48.870;9.082;2022-12-18T07:36:38;58.22;;;26.95;;
76053;SDS011;64752;48.870;9.082;2022-12-18T07:39:04;64.97;;;29.43;;
76053;SDS011;64752;48.870;9.082;2022-12-18T07:41:29;65.83;;;30.17;;
76053;SDS011;64752;48.870;9.082;2022-12-18T07:43:55;60.00;;;28.50;;
76053;SDS011;64752;48.870;9.082;2022-12-18T07:46:21;55.70;;;26.13;;
76053;SDS011;64752;48.870;9.082;2022-12-18T07:48:47;57.67;;;27.92;;
76053;SDS011;64752;48.870;9.082;2022-12-18T07:51:12;61.30;;;26.83;;
76053;SDS011;64752;48.870;9.082;2022-12-18T07:53:38;58.93;;;28.30;;
76053;SDS011;64752;48.870;9.082;2022-12-18T07:56:07;60.43;;;27.73;;
76053;SDS011;64752;48.870;9.082;2022-12-18T07:58:35;57.58;;;26.15;;
76053;SDS011;64752;48.870;9.082;2022-12-18T08:03:29;57.85;;;28.70;;
76053;SDS011;64752;48.870;9.082;2022-12-18T08:05:58;57.70;;;26.80;;
76053;SDS011;64752;48.870;9.082;2022-12-18T08:08:27;51.50;;;26.95;;
76053;SDS011;64752;48.870;9.082;2022-12-18T08:10:53;54.38;;;28.02;;
76053;SDS011;64752;48.870;9.082;2022-12-18T08:13:18;53.03;;;26.23;;
76053;SDS011;64752;48.870;9.082;2022-12-18T08:15:44;56.37;;;26.70;;
76053;SDS011;64752;48.870;9.082;2022-12-18T08:18:09;60.93;;;27.30;;
76053;SDS011;64752;48.870;9.082;2022-12-18T08:20:35;52.83;;;26.77;;
76053;SDS011;64752;48.870;9.082;2022-12-18T08:23:00;52.43;;;25.33;;
76053;SDS011;64752;48.870;9.082;2022-12-18T08:25:25;57.40;;;27.17;;
76053;SDS011;64752;48.870;9.082;2022-12-18T08:27:51;58.90;;;27.10;;
76053;SDS011;64752;48.870;9.082;2022-12-18T08:30:16;60.00;;;27.17;;
76053;SDS011;64752;48.870;9.082;2022-12-18T08:32:41;59.63;;;29.20;;
76053;SDS011;64752;48.870;9.082;2022-12-18T08:35:07;59.43;;;26.50;;
76053;SDS011;64752;48.870;9.082;2022-12-18T08:37:33;48.38;;;25.42;;
76053;SDS011;64752;48.870;9.082;2022-12-18T08:39:58;53.50;;;27.83;;
76053;SDS011;64752;48.870;9.082;2022-12-18T08:42:24;64.77;;;28.37;;
76053;SDS011;64752;48.870;9.082;2022-12-18T08:45:08;57.08;;;26.45;;
76053;SDS011;64752;48.870;9.082;2022-12-18T08:47:34;50.10;;;25.02;;
76053;SDS011;64752;48.870;9.082;2022-12-18T08:49:59;54.03;;;26.33;;
76053;SDS011;64752;48.870;9.082;2022-12-18T08:52:24;54.23;;;26.23;;
76053;SDS011;64752;48.870;9.082;2022-12-18T08:54:50;54.03;;;27.17;;
76053;SDS011;64752;48.870;9.082;2022-12-18T08:57:15;55.70;;;26.23;;
76053;SDS011;64752;48.870;9.082;2022-12-18T08:59:41;56.40;;;27.00;;
76053;SDS011;64752;48.870;9.082;2022-12-18T09:02:07;55.23;;;27.73;;
76053;SDS011;64752;48.870;9.082;2022-12-18T09:04:34;52.88;;;27.45;;
76053;SDS011;64752;48.870;9.082;2022-12-18T09:07:00;57.70;;;25.70;;
76053;SDS011;64752;48.870;9.082;2022-12-18T09:09:25;53.43;;;25.57;;
76053;SDS011;64752;48.870;9.082;2022-12-18T09:11:50;49.97;;;25.70;;
76053;SDS011;64752;48.870;9.082;2022-12-18T09:14:15;46.87;;;24.83;;
76053;SDS011;64752;48.870;9.082;2022-12-18T09:16:41;43.10;;;22.90;;
76053;SDS011;64752;48.870;9.082;2022-12-18T09:19:07;43.77;;;22.47;;
76053;SDS011;64752;48.870;9.082;2022-12-18T09:21:33;41.77;;;22.13;;
76053;SDS011;64752;48.870;9.082;2022-12-18T09:24:00;37.80;;;21.55;;
76053;SDS011;64752;48.870;9.082;2022-12-18T09:26:25;40.83;;;21.90;;
76053;SDS011;64752;48.870;9.082;2022-12-18T09:28:52;43.65;;;23.08;;
76053;SDS011;64752;48.870;9.082;2022-12-18T09:31:18;39.45;;;21.48;;
76053;SDS011;64752;48.870;9.082;2022-12-18T09:33:45;42.88;;;21.70;;
76053;SDS011;64752;48.870;9.082;2022-12-18T09:36:12;41.57;;;22.50;;
76053;SDS011;64752;48.870;9.082;2022-12-18T09:38:39;38.92;;;20.80;;
76053;SDS011;64752;48.870;9.082;2022-12-18T09:43:52;37.83;;;21.05;;
76053;SDS011;64752;48.870;9.082;2022-12-18T09:46:26;41.70;;;21.83;;
76053;SDS011;64752;48.870;9.082;2022-12-18T09:49:00;41.10;;;22.13;;
76053;SDS011;64752;48.870;9.082;2022-12-18T09:51:33;38.58;;;21.17;;
76053;SDS011;64752;48.870;9.082;2022-12-18T09:54:03;36.30;;;19.95;;
76053;SDS011;64752;48.870;9.082;2022-12-18T09:56:37;35.95;;;20.33;;
76053;SDS011;64752;48.870;9.082;2022-12-18T09:59:13;39.33;;;20.30;;
76053;SDS011;64752;48.870;9.082;2022-12-18T10:01:44;38.30;;;20.73;;
76053;SDS011;64752;48.870;9.082;2022-12-18T10:04:10;37.67;;;20.87;;
76053;SDS011;64752;48.870;9.082;2022-12-18T10:06:38;36.80;;;21.67;;
76053;SDS011;64752;48.870;9.082;2022-12-18T10:09:27;36.00;;;20.75;;
76053;SDS011;64752;48.870;9.082;2022-12-18T10:14:35;41.38;;;22.67;;
76053;SDS011;64752;48.870;9.082;2022-12-18T10:27:27;34.97;;;20.98;;
76053;SDS011;64752;48.870;9.082;2022-12-18T10:29:53;34.25;;;20.15;;
76053;SDS011;64752;48.870;9.082;2022-12-18T10:32:20;34.38;;;20.67;;
76053;SDS011;64752;48.870;9.082;2022-12-18T10:34:48;32.05;;;20.00;;
76053;SDS011;64752;48.870;9.082;2022-12-18T10:37:18;32.42;;;19.70;;
76053;SDS011;64752;48.870;9.082;2022-12-18T10:40:05;33.65;;;20.90;;
76053;SDS011;64752;48.870;9.082;2022-12-18T10:42:33;34.63;;;20.52;;
76053;SDS011;64752;48.870;9.082;2022-12-18T10:45:12;32.78;;;19.33;;
76053;SDS011;64752;48.870;9.082;2022-12-18T10:47:42;33.92;;;20.48;;
76053;SDS011;64752;48.870;9.082;2022-12-18T10:50:18;37.83;;;21.08;;
76053;SDS011;64752;48.870;9.082;2022-12-18T10:52:55;30.65;;;20.13;;
76053;SDS011;64752;48.870;9.082;2022-12-18T10:55:23;35.75;;;22.00;;
76053;SDS011;64752;48.870;9.082;2022-12-18T10:57:53;33.28;;;20.05;;
76053;SDS011;64752;48.870;9.082;2022-12-18T11:00:26;37.72;;;21.05;;
76053;SDS011;64752;48.870;9.082;2022-12-18T11:02:55;37.45;;;21.40;;
76053;SDS011;64752;48.870;9.082;2022-12-18T11:07:53;35.40;;;21.80;;
76053;SDS011;64752;48.870;9.082;2022-12-18T11:10:25;37.22;;;20.95;;
76053;SDS011;64752;48.870;9.082;2022-12-18T11:13:08;34.85;;;21.42;;
76053;SDS011;64752;48.870;9.082;2022-12-18T11:15:48;34.03;;;19.83;;
76053;SDS011;64752;48.870;9.082;2022-12-18T11:18:16;38.65;;;23.73;;
76053;SDS011;64752;48.870;9.082;2022-12-18T11:20:56;36.78;;;22.92;;
76053;SDS011;64752;48.870;9.082;2022-12-18T11:23:24;39.38;;;22.40;;
76053;SDS011;64752;48.870;9.082;2022-12-18T11:26:01;34.97;;;22.05;;
76053;SDS011;64752;48.870;9.082;2022-12-18T11:28:29;38.30;;;23.40;;
76053;SDS011;64752;48.870;9.082;2022-12-18T11:33:46;35.60;;;22.80;;
76053;SDS011;64752;48.870;9.082;2022-12-18T11:36:17;34.88;;;20.98;;
76053;SDS011;64752;48.870;9.082;2022-12-18T11:38:44;36.65;;;21.83;;
76053;SDS011;64752;48.870;9.082;2022-12-18T11:43:52;37.17;;;21.85;;
76053;SDS011;64752;48.870;9.082;2022-12-18T11:46:24;37.42;;;22.08;;
76053;SDS011;64752;48.870;9.082;2022-12-18T11:49:07;39.42;;;21.75;;
76053;SDS011;64752;48.870;9.082;2022-12-18T11:54:16;34.08;;;19.85;;
76053;SDS011;64752;48.870;9.082;2022-12-18T11:56:48;36.90;;;20.50;;
76053;SDS011;64752;48.870;9.082;2022-12-18T12:05:28;33.20;;;19.58;;
76053;SDS011;64752;48.870;9.082;2022-12-18T12:08:04;33.30;;;19.02;;
76053;SDS011;64752;48.870;9.082;2022-12-18T12:15:46;34.70;;;19.30;;
76053;SDS011;64752;48.870;9.082;2022-12-18T12:40:53;39.17;;;19.38;;
76053;SDS011;64752;48.870;9.082;2022-12-18T12:48:31;37.03;;;18.63;;
76053;SDS011;64752;48.870;9.082;2022-12-18T12:51:08;37.50;;;19.70;;
76053;SDS011;64752;48.870;9.082;2022-12-18T12:53:46;40.92;;;20.65;;
76053;SDS011;64752;48.870;9.082;2022-12-18T12:56:14;39.53;;;19.98;;
76053;SDS011;64752;48.870;9.082;2022-12-18T12:59:17;36.90;;;20.80;;
76053;SDS011;64752;48.870;9.082;2022-12-18T13:04:34;36.17;;;19.63;;
76053;SDS011;64752;48.870;9.082;2022-12-18T13:16:04;41.42;;;21.23;;
76053;SDS011;64752;48.870;9.082;2022-12-18T13:18:54;37.78;;;19.70;;
76053;SDS011;64752;48.870;9.082;2022-12-18T13:21:32;35.70;;;19.80;;
76053;SDS011;64752;48.870;9.082;2022-12-18T13:24:28;37.88;;;19.98;;
76053;SDS011;64752;48.870;9.082;2022-12-18T13:26:56;38.00;;;18.88;;
76053;SDS011;64752;48.870;9.082;2022-12-18T13:29:41;41.00;;;20.67;;
76053;SDS011;64752;48.870;9.082;2022-12-18T13:32:18;36.83;;;18.95;;
76053;SDS011;64752;48.870;9.082;2022-12-18T14:24:41;42.47;;;22.70;;
76053;SDS011;64752;48.870;9.082;2022-12-18T14:27:28;44.42;;;20.77;;
76053;SDS011;64752;48.870;9.082;2022-12-18T14:38:50;46.95;;;21.70;;
76053;SDS011;64752;48.870;9.082;2022-12-18T14:41:26;45.08;;;22.75;;
76053;SDS011;64752;48.870;9.082;2022-12-18T14:43:54;51.30;;;24.08;;
76053;SDS011;64752;48.870;9.082;2022-12-18T14:46:34;48.85;;;23.02;;
76053;SDS011;64752;48.870;9.082;2022-12-18T14:49:43;42.60;;;22.20;;
76053;SDS011;64752;48.870;9.082;2022-12-18T14:51:58;45.42;;;22.98;;
76053;SDS011;64752;48.870;9.082;2022-12-18T14:54:31;45.45;;;23.25;;
76053;SDS011;64752;48.870;9.082;2022-12-18T14:57:06;48.97;;;23.60;;
76053;SDS011;64752;48.870;9.082;2022-12-18T15:00:15;49.47;;;23.42;;
76053;SDS011;64752;48.870;9.082;2022-12-18T15:02:43;53.45;;;25.80;;
76053;SDS011;64752;48.870;9.082;2022-12-18T15:07:42;49.27;;;23.03;;
76053;SDS011;64752;48.870;9.082;2022-12-18T15:10:24;51.40;;;24.88;;
76053;SDS011;64752;48.870;9.082;2022-12-18T15:20:33;59.13;;;26.52;;
76053;SDS011;64752;48.870;9.082;2022-12-18T15:26:05;52.65;;;25.83;;
76053;SDS011;64752;48.870;9.082;2022-12-18T15:28:39;55.65;;;26.40;;
76053;SDS011;64752;48.870;9.082;2022-12-18T15:34:09;57.30;;;27.17;;
76053;SDS011;64752;48.870;9.082;2022-12-18T15:36:30;58.47;;;27.42;;
76053;SDS011;64752;48.870;9.082;2022-12-18T15:38:56;58.53;;;28.23;;
76053;SDS011;64752;48.870;9.082;2022-12-18T15:41:24;59.92;;;28.92;;
76053;SDS011;64752;48.870;9.082;2022-12-18T15:43:50;58.67;;;27.07;;
76053;SDS011;64752;48.870;9.082;2022-12-18T15:46:21;59.58;;;27.00;;
76053;SDS011;64752;48.870;9.082;2022-12-18T15:48:52;61.47;;;27.50;;
76053;SDS011;64752;48.870;9.082;2022-12-18T15:51:21;60.28;;;28.63;;
76053;SDS011;64752;48.870;9.082;2022-12-18T15:53:50;62.35;;;28.75;;
76053;SDS011;64752;48.870;9.082;2022-12-18T15:56:23;55.70;;;26.25;;
76053;SDS011;64752;48.870;9.082;2022-12-18T15:59:11;61.47;;;27.15;;
76053;SDS011;64752;48.870;9.082;2022-12-18T16:01:41;66.45;;;30.42;;
76053;SDS011;64752;48.870;9.082;2022-12-18T16:04:10;69.05;;;29.73;;
76053;SDS011;64752;48.870;9.082;2022-12-18T16:06:37;64.47;;;27.73;;
76053;SDS011;64752;48.870;9.082;2022-12-18T16:09:03;60.77;;;27.73;;
76053;SDS011;64752;48.870;9.082;2022-12-18T16:11:31;62.80;;;28.17;;
76053;SDS011;64752;48.870;9.082;2022-12-18T16:16:41;57.67;;;27.08;;
76053;SDS011;64752;48.870;9.082;2022-12-18T16:19:07;59.67;;;27.83;;
76053;SDS011;64752;48.870;9.082;2022-12-18T16:21:32;57.83;;;27.53;;
76053;SDS011;64752;48.870;9.082;2022-12-18T16:23:58;56.37;;;26.90;;
76053;SDS011;64752;48.870;9.082;2022-12-18T16:26:25;59.10;;;25.90;;
76053;SDS011;64752;48.870;9.082;2022-12-18T16:28:51;58.15;;;28.02;;
76053;SDS011;64752;48.870;9.082;2022-12-18T16:31:22;61.90;;;27.77;;
76053;SDS011;64752;48.870;9.082;2022-12-18T16:34:09;58.72;;;27.05;;
76053;SDS011;64752;48.870;9.082;2022-12-18T16:36:41;66.20;;;29.52;;
76053;SDS011;64752;48.870;9.082;2022-12-18T16:39:19;62.78;;;27.65;;
76053;SDS011;64752;48.870;9.082;2022-12-18T16:41:50;57.85;;;28.02;;
76053;SDS011;64752;48.870;9.082;2022-12-18T16:44:15;57.67;;;27.00;;
76053;SDS011;64752;48.870;9.082;2022-12-18T16:46:41;58.07;;;27.87;;
76053;SDS011;64752;48.870;9.082;2022-12-18T16:49:11;61.55;;;28.60;;
76053;SDS011;64752;48.870;9.082;2022-12-18T16:51:37;61.65;;;27.50;;
76053;SDS011;64752;48.870;9.082;2022-12-18T16:54:03;56.07;;;27.47;;
76053;SDS011;64752;48.870;9.082;2022-12-18T16:56:28;60.73;;;28.07;;
76053;SDS011;64752;48.870;9.082;2022-12-18T16:58:55;55.67;;;26.50;;
76053;SDS011;64752;48.870;9.082;2022-12-18T17:01:23;63.70;;;27.25;;
76053;SDS011;64752;48.870;9.082;2022-12-18T17:03:52;60.08;;;27.52;;
76053;SDS011;64752;48.870;9.082;2022-12-18T17:06:20;59.72;;;27.73;;
76053;SDS011;64752;48.870;9.082;2022-12-18T17:11:11;57.10;;;27.08;;
76053;SDS011;64752;48.870;9.082;2022-12-18T17:13:36;54.83;;;25.17;;
76053;SDS011;64752;48.870;9.082;2022-12-18T17:16:02;58.57;;;26.27;;
76053;SDS011;64752;48.870;9.082;2022-12-18T17:18:32;55.83;;;28.25;;
76053;SDS011;64752;48.870;9.082;2022-12-18T17:21:01;62.40;;;28.98;;
76053;SDS011;64752;48.870;9.082;2022-12-18T17:23:33;56.53;;;26.20;;
76053;SDS011;64752;48.870;9.082;2022-12-18T17:25:59;59.63;;;28.30;;
76053;SDS011;64752;48.870;9.082;2022-12-18T17:28:28;59.23;;;29.37;;
76053;SDS011;64752;48.870;9.082;2022-12-18T17:30:54;60.08;;;28.30;;
76053;SDS011;64752;48.870;9.082;2022-12-18T17:33:23;61.33;;;27.73;;
76053;SDS011;64752;48.870;9.082;2022-12-18T17:39:02;53.33;;;26.70;;
76053;SDS011;64752;48.870;9.082;2022-12-18T17:41:29;64.47;;;29.17;;
76053;SDS011;64752;48.870;9.082;2022-12-18T17:43:56;60.47;;;28.37;;
76053;SDS011;64752;48.870;9.082;2022-12-18T17:46:23;62.60;;;28.67;;
76053;SDS011;64752;48.870;9.082;2022-12-18T17:48:49;59.58;;;26.85;;
76053;SDS011;64752;48.870;9.082;2022-12-18T17:51:15;57.63;;;28.70;;
76053;SDS011;64752;48.870;9.082;2022-12-18T17:53:41;57.77;;;27.47;;